Time;durP1;ratioP1;P1;durP2;ratioP2;P2;SDS_P1;SDS_P2;PMS_P1;PMS_P2;Temp;Humidity;BMP_temperature;BMP_pressure;BME280_temperature;BME280_humidity;BME280_pressure;Samples;Min_cycle;Max_cycle;Signal;HPM_P1;HPM_P2
2022/11/23 00:00:17;;;;;;;6.22;3.10;;;7.00;99.90;;;;;;5053769;28;20209;-63
2022/11/23 00:02:44;;;;;;;6.30;3.10;;;7.00;99.90;;;;;;5053637;28;20213;-62
2022/11/23 00:05:10;;;;;;;5.20;3.03;;;7.00;99.90;;;;;;5054192;28;20218;-62
2022/11/23 00:07:38;;;;;;;3.47;2.53;;;7.00;99.90;;;;;;5055068;28;20212;-62
2022/11/23 00:10:06;;;;;;;3.45;2.60;;;7.00;99.90;;;;;;5053830;28;20231;-61
2022/11/23 00:12:33;;;;;;;5.45;2.58;;;7.00;99.90;;;;;;5053566;28;20210;-62
2022/11/23 00:15:00;;;;;;;4.13;3.00;;;7.00;99.90;;;;;;5053498;28;20704;-61
2022/11/23 00:17:26;;;;;;;6.25;3.55;;;7.00;99.90;;;;;;5053488;28;20217;-62
2022/11/23 00:19:53;;;;;;;5.38;2.90;;;6.90;99.90;;;;;;5053101;28;20685;-61
2022/11/23 00:22:21;;;;;;;6.88;2.65;;;6.90;99.90;;;;;;5053189;28;20205;-62
2022/11/23 00:24:49;;;;;;;3.00;2.40;;;6.80;99.90;;;;;;5053166;28;20708;-62
2022/11/23 00:27:15;;;;;;;5.72;3.25;;;6.80;99.90;;;;;;5058119;28;20662;-61
2022/11/23 00:29:42;;;;;;;5.18;2.60;;;6.70;99.90;;;;;;5058609;28;20205;-61
2022/11/23 00:32:09;;;;;;;5.57;3.30;;;6.70;99.90;;;;;;5058213;28;20197;-62
2022/11/23 00:34:36;;;;;;;3.60;2.47;;;6.70;99.90;;;;;;5058060;28;20228;-61
2022/11/23 00:37:03;;;;;;;5.43;2.70;;;6.60;99.90;;;;;;5058102;28;20208;-61
2022/11/23 00:39:29;;;;;;;3.10;2.70;;;6.60;99.90;;;;;;5059359;28;20202;-61
2022/11/23 00:41:57;;;;;;;5.75;3.28;;;6.60;99.90;;;;;;5058725;28;20209;-62
2022/11/23 00:44:24;;;;;;;3.85;2.92;;;6.60;99.90;;;;;;5057963;28;20713;-63
2022/11/23 00:46:51;;;;;;;6.35;3.20;;;6.60;99.90;;;;;;5058389;28;20202;-62
2022/11/23 00:49:18;;;;;;;3.22;2.90;;;6.60;99.90;;;;;;5058337;28;20216;-61
2022/11/23 00:51:44;;;;;;;3.25;2.90;;;6.60;99.90;;;;;;5058216;28;20213;-62
2022/11/23 00:54:12;;;;;;;4.28;2.97;;;6.60;99.90;;;;;;5057836;28;20225;-62
2022/11/23 00:56:39;;;;;;;4.95;2.50;;;6.60;99.90;;;;;;5056572;28;20448;-63
2022/11/23 00:59:07;;;;;;;2.63;2.30;;;6.60;99.90;;;;;;5057812;28;20208;-62
2022/11/23 01:01:35;;;;;;;3.22;2.53;;;6.60;99.90;;;;;;5058352;28;20208;-61
2022/11/23 01:04:05;;;;;;;7.43;3.05;;;6.50;99.90;;;;;;5057481;28;20229;-63
2022/11/23 01:06:35;;;;;;;4.97;3.33;;;6.50;99.90;;;;;;5057819;28;20220;-62
2022/11/23 01:09:06;;;;;;;3.45;2.60;;;6.40;99.90;;;;;;5056932;28;20205;-62
2022/11/23 01:11:33;;;;;;;4.95;2.72;;;6.40;99.90;;;;;;5057247;28;20201;-61
2022/11/23 01:14:00;;;;;;;4.07;2.97;;;6.40;99.90;;;;;;5056983;28;20241;-62
2022/11/23 01:16:30;;;;;;;4.53;2.63;;;6.40;99.90;;;;;;5057187;28;20557;-63
2022/11/23 01:18:58;;;;;;;5.22;2.78;;;6.40;99.90;;;;;;5056642;28;20182;-62
2022/11/23 01:21:27;;;;;;;3.63;2.63;;;6.30;99.90;;;;;;5056266;28;20209;-61
2022/11/23 01:23:55;;;;;;;5.18;2.80;;;6.30;99.90;;;;;;5056480;28;20236;-62
2022/11/23 01:26:22;;;;;;;5.65;2.55;;;6.30;99.90;;;;;;5057243;28;20205;-62
2022/11/23 01:28:49;;;;;;;3.45;2.50;;;6.40;99.90;;;;;;5057620;28;20271;-61
2022/11/23 01:31:18;;;;;;;4.47;3.20;;;6.40;99.90;;;;;;5056032;28;20688;-60
2022/11/23 01:33:47;;;;;;;3.40;2.30;;;6.40;99.90;;;;;;5055769;28;20222;-62
2022/11/23 01:36:16;;;;;;;3.10;2.30;;;6.40;99.90;;;;;;5055540;28;20670;-61
2022/11/23 01:38:43;;;;;;;3.65;2.70;;;6.40;99.90;;;;;;5055918;28;20209;-61
2022/11/23 01:41:14;;;;;;;4.50;2.60;;;6.40;99.90;;;;;;5055492;28;20428;-62
2022/11/23 01:43:41;;;;;;;5.90;2.42;;;6.40;99.90;;;;;;5056672;28;20653;-62
2022/11/23 01:46:09;;;;;;;6.78;2.90;;;6.50;99.90;;;;;;5056866;28;20261;-61
2022/11/23 01:48:39;;;;;;;8.63;2.60;;;6.50;99.90;;;;;;5057057;28;20218;-62
2022/11/23 01:51:12;;;;;;;3.38;2.53;;;6.50;99.90;;;;;;5056742;28;20642;-65
2022/11/23 01:53:40;;;;;;;4.05;2.55;;;6.50;99.90;;;;;;5056268;28;20190;-61
2022/11/23 01:56:10;;;;;;;5.95;3.08;;;6.50;99.90;;;;;;5056183;28;20228;-61
2022/11/23 01:58:42;;;;;;;3.60;2.20;;;6.50;99.90;;;;;;5056404;28;20192;-61
2022/11/23 02:01:09;;;;;;;5.07;2.50;;;6.60;99.90;;;;;;5056025;28;20208;-61
2022/11/23 02:03:37;;;;;;;5.00;2.50;;;6.60;99.90;;;;;;5055585;28;20208;-61
2022/11/23 02:06:09;;;;;;;4.10;2.47;;;6.60;99.90;;;;;;5054314;28;20410;-61
2022/11/23 02:08:36;;;;;;;6.17;2.50;;;6.60;99.90;;;;;;5054610;28;20416;-61
2022/11/23 02:11:03;;;;;;;4.72;2.40;;;6.70;99.90;;;;;;5054712;28;20417;-61
2022/11/23 02:13:30;;;;;;;3.90;2.30;;;6.70;99.90;;;;;;5054262;28;20762;-61
2022/11/23 02:15:59;;;;;;;3.05;2.40;;;6.70;99.90;;;;;;5055774;28;20480;-61
2022/11/23 02:18:28;;;;;;;4.43;2.25;;;6.70;99.90;;;;;;5055185;28;20201;-61
2022/11/23 02:20:56;;;;;;;3.33;2.10;;;6.70;99.90;;;;;;5055082;28;20205;-61
2022/11/23 02:23:33;;;;;;;3.33;2.70;;;6.70;99.90;;;;;;5054896;28;20212;-61
2022/11/23 02:26:07;;;;;;;4.07;2.65;;;6.70;99.90;;;;;;5054999;28;20193;-61
2022/11/23 02:28:37;;;;;;;2.88;2.22;;;6.80;99.90;;;;;;5055831;28;20204;-61
2022/11/23 02:31:04;;;;;;;4.75;2.58;;;6.80;99.90;;;;;;5056388;28;20209;-61
2022/11/23 02:33:31;;;;;;;2.97;2.53;;;6.80;99.90;;;;;;5055433;28;20209;-60
2022/11/23 02:36:00;;;;;;;5.45;2.78;;;6.80;99.90;;;;;;5054241;28;20435;-61
2022/11/23 02:38:30;;;;;;;3.45;2.40;;;6.80;99.90;;;;;;5054802;28;20572;-62
2022/11/23 02:40:57;;;;;;;4.55;2.85;;;6.80;99.90;;;;;;5054635;28;20205;-61
2022/11/23 02:43:25;;;;;;;5.15;3.13;;;6.90;99.90;;;;;;5054550;28;20202;-62
2022/11/23 02:45:55;;;;;;;6.57;2.50;;;6.90;99.90;;;;;;5054326;28;20251;-61
2022/11/23 02:48:22;;;;;;;3.67;2.72;;;6.90;99.90;;;;;;5054055;28;20642;-61
2022/11/23 02:50:49;;;;;;;3.17;2.40;;;6.90;99.90;;;;;;5054043;28;20205;-61
2022/11/23 02:53:17;;;;;;;3.53;2.30;;;6.90;99.90;;;;;;5055054;28;20235;-62
2022/11/23 02:55:43;;;;;;;3.95;2.55;;;6.90;99.90;;;;;;5054781;28;20229;-60
2022/11/23 02:58:10;;;;;;;6.57;2.92;;;6.90;99.90;;;;;;5055008;28;20205;-61
2022/11/23 03:00:38;;;;;;;6.18;2.33;;;6.90;99.90;;;;;;5054437;28;20666;-62
2022/11/23 03:03:05;;;;;;;4.20;2.08;;;6.90;99.90;;;;;;5054912;28;20205;-61
2022/11/23 03:05:32;;;;;;;3.40;2.22;;;6.90;99.90;;;;;;5054329;28;20407;-61
2022/11/23 03:07:59;;;;;;;2.70;1.85;;;6.90;99.90;;;;;;5054180;28;20205;-62
2022/11/23 03:10:26;;;;;;;7.00;2.45;;;6.90;99.90;;;;;;5053890;28;20206;-61
2022/11/23 03:12:55;;;;;;;2.78;2.53;;;6.90;99.90;;;;;;5054361;28;20301;-62
2022/11/23 03:15:22;;;;;;;3.58;2.35;;;6.90;99.90;;;;;;5054887;28;20271;-60
2022/11/23 03:17:50;;;;;;;2.50;2.30;;;6.90;99.90;;;;;;5054451;28;20202;-61
2022/11/23 03:20:17;;;;;;;4.15;3.20;;;6.90;99.90;;;;;;5053962;28;20206;-61
2022/11/23 03:22:44;;;;;;;2.50;2.30;;;6.90;99.90;;;;;;5054251;28;20201;-62
2022/11/23 03:25:11;;;;;;;3.38;2.60;;;7.00;99.90;;;;;;5054198;28;20222;-62
2022/11/23 03:27:38;;;;;;;4.90;2.75;;;7.00;99.90;;;;;;5053588;28;20689;-61
2022/11/23 03:30:07;;;;;;;7.38;3.35;;;7.10;99.90;;;;;;5053995;28;20205;-62
2022/11/23 03:32:34;;;;;;;6.10;2.70;;;7.10;99.90;;;;;;5053635;28;20397;-61
2022/11/23 03:35:02;;;;;;;5.70;2.75;;;7.10;99.90;;;;;;5053617;28;20236;-61
2022/11/23 03:37:29;;;;;;;5.28;2.53;;;7.10;99.90;;;;;;5053819;28;20210;-60
2022/11/23 03:39:55;;;;;;;3.05;2.47;;;7.10;99.90;;;;;;5054256;28;20201;-61
2022/11/23 03:42:22;;;;;;;3.85;2.35;;;7.10;99.90;;;;;;5053890;28;20213;-61
2022/11/23 03:44:49;;;;;;;4.28;2.30;;;7.10;99.90;;;;;;5053633;28;20272;-61
2022/11/23 03:47:16;;;;;;;4.63;2.90;;;7.10;99.90;;;;;;5053748;28;20202;-61
2022/11/23 03:49:42;;;;;;;3.85;2.30;;;7.10;99.90;;;;;;5053871;28;20570;-61
2022/11/23 03:52:10;;;;;;;3.38;2.15;;;7.10;99.90;;;;;;5054754;28;20202;-61
2022/11/23 03:54:37;;;;;;;5.55;2.50;;;7.10;99.90;;;;;;5055344;28;20225;-61
2022/11/23 03:57:04;;;;;;;4.00;2.33;;;7.00;99.90;;;;;;5054422;28;20248;-62
2022/11/23 03:59:31;;;;;;;5.35;2.63;;;7.10;99.90;;;;;;5053203;28;20208;-62
2022/11/23 04:01:57;;;;;;;3.22;2.60;;;7.10;99.90;;;;;;5053114;28;20205;-62
2022/11/23 04:04:24;;;;;;;3.55;2.50;;;7.10;99.90;;;;;;5053334;28;20363;-60
2022/11/23 04:06:51;;;;;;;6.90;2.28;;;7.10;99.90;;;;;;5054634;28;20208;-58
2022/11/23 04:10:36;;;;;;;2.53;2.30;;;7.10;99.90;;;;;;5091243;28;20549;-62
2022/11/23 04:13:03;;;;;;;6.07;2.97;;;7.00;99.90;;;;;;5091049;28;20213;-63
2022/11/23 04:15:30;;;;;;;5.45;2.60;;;7.00;99.90;;;;;;5092435;28;20232;-62
2022/11/23 04:17:57;;;;;;;2.97;2.13;;;7.00;99.90;;;;;;5091386;28;20218;-62
2022/11/23 04:20:24;;;;;;;10.45;2.90;;;6.90;99.90;;;;;;5090943;28;20210;-61
2022/11/23 04:22:51;;;;;;;6.30;2.95;;;6.90;99.90;;;;;;5091136;28;20215;-61
2022/11/23 04:25:17;;;;;;;4.43;2.83;;;6.90;99.90;;;;;;5091090;28;20595;-62
2022/11/23 04:27:46;;;;;;;5.47;2.60;;;6.80;99.90;;;;;;5091154;28;20208;-62
2022/11/23 04:30:14;;;;;;;3.90;2.45;;;6.70;99.90;;;;;;5091308;28;20231;-62
2022/11/23 04:32:41;;;;;;;3.72;2.55;;;6.70;99.90;;;;;;5092401;28;20212;-62
2022/11/23 04:35:08;;;;;;;5.40;2.80;;;6.60;99.90;;;;;;5095601;22;20428;-61
2022/11/23 04:37:35;;;;;;;4.82;2.85;;;6.60;99.90;;;;;;5069237;28;20500;-61
2022/11/23 04:40:01;;;;;;;5.05;2.80;;;6.50;99.90;;;;;;5070380;28;20205;-61
2022/11/23 04:42:28;;;;;;;6.00;2.67;;;6.50;99.90;;;;;;5070473;28;20212;-61
2022/11/23 04:44:57;;;;;;;5.45;3.03;;;6.40;99.90;;;;;;5069931;28;20701;-61
2022/11/23 04:47:23;;;;;;;7.38;2.45;;;6.40;99.90;;;;;;5070733;28;20677;-61
2022/11/23 04:49:50;;;;;;;7.00;3.13;;;6.30;99.90;;;;;;5072929;28;20588;-61
2022/11/23 04:52:17;;;;;;;9.77;3.50;;;6.30;99.90;;;;;;5073535;28;20242;-62
2022/11/23 04:54:44;;;;;;;8.48;2.75;;;6.30;99.90;;;;;;5072105;28;20232;-61
2022/11/23 04:57:11;;;;;;;8.13;2.70;;;6.30;99.90;;;;;;5074704;28;20201;-61
2022/11/23 04:59:37;;;;;;;5.32;2.55;;;6.20;99.90;;;;;;5073288;28;20193;-61
2022/11/23 05:02:06;;;;;;;4.13;3.00;;;6.20;99.90;;;;;;5076937;28;20685;-62
2022/11/23 05:04:33;;;;;;;3.10;2.53;;;6.20;99.90;;;;;;5087706;28;20217;-61
2022/11/23 05:07:00;;;;;;;3.20;2.90;;;6.10;99.90;;;;;;5092211;28;20749;-60
2022/11/23 05:09:27;;;;;;;5.55;3.35;;;6.10;99.90;;;;;;5089919;28;20223;-61
2022/11/23 05:11:53;;;;;;;4.97;2.90;;;6.00;99.90;;;;;;5090154;28;20201;-60
2022/11/23 05:14:20;;;;;;;3.03;2.67;;;6.00;99.90;;;;;;5089463;28;20762;-62
2022/11/23 05:16:47;;;;;;;4.22;3.33;;;6.00;99.90;;;;;;5090101;28;20196;-62
2022/11/23 05:19:15;;;;;;;6.03;3.30;;;6.00;99.90;;;;;;5088104;28;20911;-61
2022/11/23 05:21:41;;;;;;;7.57;3.35;;;6.00;99.90;;;;;;5057701;28;20205;-61
2022/11/23 05:24:08;;;;;;;6.70;2.80;;;6.10;99.90;;;;;;5060052;28;20228;-60
2022/11/23 05:26:35;;;;;;;5.93;2.58;;;6.10;99.90;;;;;;5045747;28;20205;-61
2022/11/23 05:29:02;;;;;;;5.03;3.50;;;6.10;99.90;;;;;;5036401;28;20691;-60
2022/11/23 05:31:28;;;;;;;7.00;3.60;;;6.10;99.90;;;;;;5054006;28;20572;-59
2022/11/23 05:33:55;;;;;;;7.70;2.90;;;6.10;99.90;;;;;;5057466;28;20209;-61
2022/11/23 05:36:23;;;;;;;8.73;3.78;;;6.10;99.90;;;;;;5057495;28;20421;-61
2022/11/23 05:38:50;;;;;;;8.15;3.15;;;6.10;99.90;;;;;;5060720;28;20208;-62
2022/11/23 05:41:17;;;;;;;4.22;2.65;;;6.10;99.90;;;;;;5058346;28;20208;-61
2022/11/23 05:43:43;;;;;;;5.55;3.25;;;6.10;99.90;;;;;;5057470;28;20197;-61
2022/11/23 05:46:11;;;;;;;5.05;2.97;;;6.10;99.90;;;;;;5057292;28;20208;-61
2022/11/23 05:48:38;;;;;;;7.70;3.38;;;6.10;99.90;;;;;;5057089;28;20201;-61
2022/11/23 05:51:04;;;;;;;4.10;2.85;;;6.10;99.90;;;;;;5057033;28;20208;-61
2022/11/23 05:53:33;;;;;;;4.00;2.90;;;6.10;99.90;;;;;;5057206;28;20202;-61
2022/11/23 05:56:00;;;;;;;8.45;3.30;;;6.20;99.90;;;;;;5056485;28;20705;-61
2022/11/23 05:58:27;;;;;;;5.38;2.75;;;6.20;99.90;;;;;;5056531;28;20558;-61
2022/11/23 06:00:58;;;;;;;2.80;2.60;;;6.20;99.90;;;;;;5055802;28;20197;-61
2022/11/23 06:03:25;;;;;;;3.70;3.10;;;6.20;99.90;;;;;;5055592;28;20194;-60
2022/11/23 06:05:52;;;;;;;4.10;3.15;;;6.20;99.90;;;;;;5056089;28;20304;-61
2022/11/23 06:08:19;;;;;;;6.03;3.08;;;6.20;99.90;;;;;;5055194;28;20202;-62
2022/11/23 06:10:47;;;;;;;4.38;2.58;;;6.20;99.90;;;;;;5056707;28;20225;-59
2022/11/23 06:13:13;;;;;;;6.60;2.80;;;6.30;99.90;;;;;;5056416;28;20214;-60
2022/11/23 06:15:40;;;;;;;5.78;3.20;;;6.30;99.90;;;;;;5055528;28;20591;-60
2022/11/23 06:18:07;;;;;;;5.13;2.85;;;6.40;99.90;;;;;;5059919;28;20692;-60
2022/11/23 06:20:34;;;;;;;5.43;3.30;;;6.40;99.90;;;;;;5061829;28;20202;-60
2022/11/23 06:23:00;;;;;;;5.13;3.20;;;6.40;99.90;;;;;;5057849;28;20212;-61
2022/11/23 06:25:27;;;;;;;4.75;2.45;;;6.40;99.90;;;;;;5055236;28;20225;-61
2022/11/23 06:27:57;;;;;;;4.07;2.60;;;6.40;99.90;;;;;;5055823;28;20208;-62
2022/11/23 06:30:24;;;;;;;5.32;3.20;;;6.50;99.90;;;;;;5059210;28;20569;-61
2022/11/23 06:32:51;;;;;;;6.70;3.17;;;6.50;99.90;;;;;;5057465;28;20202;-61
2022/11/23 06:35:18;;;;;;;11.50;3.53;;;6.60;99.90;;;;;;5058483;28;20229;-62
2022/11/23 06:37:47;;;;;;;4.10;2.78;;;6.60;99.90;;;;;;5055590;28;20210;-61
2022/11/23 06:40:14;;;;;;;7.63;2.85;;;6.60;99.90;;;;;;5048591;28;20217;-60
2022/11/23 06:42:41;;;;;;;4.63;2.65;;;6.70;99.90;;;;;;5055694;28;20573;-60
2022/11/23 06:45:10;;;;;;;4.80;2.40;;;6.70;99.90;;;;;;5055523;28;20709;-61
2022/11/23 06:47:37;;;;;;;5.68;2.63;;;6.70;99.90;;;;;;5055395;28;20201;-60
2022/11/23 06:50:04;;;;;;;5.32;3.65;;;6.70;99.90;;;;;;5055465;28;20214;-60
2022/11/23 06:52:31;;;;;;;6.38;3.10;;;6.70;99.90;;;;;;5055111;28;20201;-61
2022/11/23 06:54:58;;;;;;;4.20;2.80;;;6.60;99.90;;;;;;5054274;28;20724;-60
2022/11/23 06:57:25;;;;;;;6.03;2.95;;;6.50;99.90;;;;;;5054582;28;20202;-64
2022/11/23 06:59:51;;;;;;;7.38;3.35;;;6.40;99.90;;;;;;5057937;28;20194;-62
2022/11/23 07:02:19;;;;;;;4.53;3.00;;;6.30;99.90;;;;;;5061063;28;20206;-61
2022/11/23 07:04:46;;;;;;;3.92;2.50;;;6.30;99.90;;;;;;5054999;28;20227;-60
2022/11/23 07:07:13;;;;;;;10.90;5.15;;;6.20;99.90;;;;;;5054787;28;20209;-61
2022/11/23 07:09:40;;;;;;;5.90;3.25;;;6.20;99.90;;;;;;5055066;28;20228;-62
2022/11/23 07:12:07;;;;;;;8.65;4.20;;;6.20;99.90;;;;;;5055388;28;20237;-61
2022/11/23 07:14:34;;;;;;;7.22;3.45;;;6.20;99.90;;;;;;5055309;28;20640;-61
2022/11/23 07:17:01;;;;;;;4.05;2.97;;;6.10;99.90;;;;;;5054270;28;20205;-60
2022/11/23 07:19:29;;;;;;;7.63;4.22;;;6.10;99.90;;;;;;5053933;28;20201;-63
2022/11/23 07:21:55;;;;;;;4.63;3.13;;;6.10;99.90;;;;;;5054891;28;20198;-61
2022/11/23 07:24:22;;;;;;;5.68;3.63;;;6.00;99.90;;;;;;5035324;28;20226;-62
2022/11/23 07:26:49;;;;;;;6.07;2.90;;;6.10;99.90;;;;;;5054409;28;20213;-61
2022/11/23 07:29:16;;;;;;;6.07;3.08;;;6.10;99.90;;;;;;5054958;28;20197;-61
2022/11/23 07:31:43;;;;;;;4.68;3.45;;;6.10;99.90;;;;;;5055493;28;20209;-62
2022/11/23 07:34:10;;;;;;;9.10;3.28;;;6.20;99.90;;;;;;5054987;28;20580;-61
2022/11/23 07:36:38;;;;;;;7.60;3.65;;;6.30;99.90;;;;;;5034377;28;20194;-61
2022/11/23 07:39:05;;;;;;;4.55;3.00;;;6.40;99.90;;;;;;5047948;28;20205;-62
2022/11/23 07:41:31;;;;;;;6.82;3.90;;;6.50;99.90;;;;;;5054177;28;20202;-61
2022/11/23 07:43:58;;;;;;;3.35;3.05;;;6.60;99.90;;;;;;5053542;28;20653;-61
2022/11/23 07:46:25;;;;;;;7.63;3.08;;;6.80;99.90;;;;;;5054344;28;20212;-62
2022/11/23 07:48:53;;;;;;;5.75;2.80;;;7.10;99.90;;;;;;5057980;28;20202;-60
2022/11/23 07:51:20;;;;;;;3.95;2.70;;;7.40;99.90;;;;;;5063263;28;20289;-61
2022/11/23 07:53:48;;;;;;;4.40;2.30;;;7.60;99.90;;;;;;5056193;28;20812;-61
2022/11/23 07:56:14;;;;;;;4.18;2.33;;;7.90;99.90;;;;;;5055433;28;20205;-61
2022/11/23 07:58:41;;;;;;;6.93;3.00;;;8.00;99.90;;;;;;5056885;28;20202;-62
2022/11/23 08:01:08;;;;;;;4.03;2.30;;;8.00;99.90;;;;;;5054329;28;20197;-62
2022/11/23 08:03:35;;;;;;;5.30;2.50;;;8.00;99.90;;;;;;5054121;28;20696;-61
2022/11/23 08:06:01;;;;;;;5.82;2.50;;;7.90;99.90;;;;;;5054200;28;20228;-61
2022/11/23 08:08:28;;;;;;;6.65;2.20;;;7.90;99.90;;;;;;5066076;28;20245;-61
2022/11/23 08:10:56;;;;;;;4.03;2.38;;;7.80;99.90;;;;;;5058543;28;20225;-63
2022/11/23 08:13:23;;;;;;;5.13;2.95;;;7.80;99.90;;;;;;5053233;28;20205;-60
2022/11/23 08:15:52;;;;;;;3.75;2.10;;;7.80;99.90;;;;;;5055050;28;20221;-63
2022/11/23 08:18:19;;;;;;;6.53;3.00;;;7.90;99.90;;;;;;5055195;28;20514;-61
2022/11/23 08:20:46;;;;;;;6.03;2.70;;;7.90;99.90;;;;;;5053134;28;20201;-62
2022/11/23 08:23:13;;;;;;;10.25;3.42;;;8.00;99.90;;;;;;5052944;28;20208;-60
2022/11/23 08:25:39;;;;;;;4.95;2.83;;;8.00;99.90;;;;;;5054203;28;20217;-62
2022/11/23 08:28:08;;;;;;;5.07;2.90;;;8.00;99.90;;;;;;5053616;28;20323;-61
2022/11/23 08:30:36;;;;;;;6.55;2.70;;;8.10;99.90;;;;;;5053635;28;20217;-60
2022/11/23 08:33:03;;;;;;;6.63;2.88;;;8.10;99.90;;;;;;5054203;28;20285;-60
2022/11/23 08:35:30;;;;;;;4.80;2.50;;;8.20;99.90;;;;;;5052980;28;20257;-62
2022/11/23 08:37:57;;;;;;;9.55;3.10;;;8.20;99.90;;;;;;5054016;28;20213;-63
2022/11/23 08:40:23;;;;;;;5.50;2.92;;;8.30;99.90;;;;;;5053499;28;20198;-61
2022/11/23 08:42:50;;;;;;;6.15;2.97;;;8.40;99.90;;;;;;5053864;28;20662;-62
2022/11/23 08:45:18;;;;;;;5.55;2.55;;;8.40;99.90;;;;;;5054087;28;20237;-59
2022/11/23 08:47:45;;;;;;;4.65;2.60;;;8.50;99.90;;;;;;5054324;28;20689;-62
2022/11/23 08:50:12;;;;;;;9.38;2.72;;;8.60;99.90;;;;;;5053090;28;20229;-62
2022/11/23 08:52:38;;;;;;;4.88;2.15;;;8.60;99.90;;;;;;5053072;28;20205;-62
2022/11/23 08:55:06;;;;;;;7.10;3.05;;;8.70;99.90;;;;;;5053577;28;20229;-62
2022/11/23 08:57:33;;;;;;;2.85;2.10;;;8.80;99.90;;;;;;5058052;28;20205;-62
2022/11/23 08:59:59;;;;;;;5.25;2.75;;;8.80;99.90;;;;;;5057076;28;20197;-61
2022/11/23 09:02:27;;;;;;;6.35;2.63;;;8.80;99.90;;;;;;5057096;28;20236;-63
2022/11/23 09:04:54;;;;;;;7.05;2.53;;;8.90;99.90;;;;;;5057630;28;20229;-63
2022/11/23 09:07:21;;;;;;;4.47;2.20;;;8.90;99.90;;;;;;5057837;28;20213;-62
2022/11/23 09:09:47;;;;;;;5.55;2.15;;;8.90;99.90;;;;;;5057966;28;20559;-63
2022/11/23 09:12:14;;;;;;;5.40;1.80;;;8.90;99.90;;;;;;5057939;28;20225;-63
2022/11/23 09:14:41;;;;;;;6.57;2.10;;;9.00;99.90;;;;;;5057299;28;20229;-62
2022/11/23 09:17:08;;;;;;;6.85;3.45;;;9.00;99.90;;;;;;5057311;28;20202;-63
2022/11/23 09:19:36;;;;;;;2.40;1.92;;;9.10;99.90;;;;;;5057819;28;20550;-62
2022/11/23 09:22:03;;;;;;;3.65;2.13;;;9.10;99.90;;;;;;5057539;28;20213;-62
2022/11/23 09:24:30;;;;;;;3.60;2.15;;;9.20;99.90;;;;;;5057023;28;20232;-62
2022/11/23 09:26:57;;;;;;;7.28;2.42;;;9.30;99.90;;;;;;5056866;28;20204;-62
2022/11/23 09:29:24;;;;;;;4.70;2.22;;;9.30;99.90;;;;;;5057772;28;20198;-61
2022/11/23 09:31:51;;;;;;;6.22;2.45;;;9.40;99.90;;;;;;5057318;28;20228;-63
2022/11/23 09:34:17;;;;;;;5.78;2.40;;;9.50;99.90;;;;;;5057348;28;20230;-63
2022/11/23 09:36:46;;;;;;;5.50;2.28;;;9.50;99.90;;;;;;5058186;28;20189;-62
2022/11/23 09:39:12;;;;;;;7.90;2.30;;;9.60;99.90;;;;;;5058737;28;20206;-61
2022/11/23 09:42:00;;;;;;;4.05;1.83;;;9.60;99.90;;;;;;5058010;28;20205;-63
2022/11/23 09:44:35;;;;;;;4.13;2.00;;;9.70;99.90;;;;;;5058177;28;20232;-66
2022/11/23 09:47:14;;;;;;;4.50;2.10;;;9.80;99.90;;;;;;5057809;28;20424;-61
2022/11/23 09:49:48;;;;;;;3.60;1.80;;;9.90;99.90;;;;;;5057098;28;20435;-63
2022/11/23 09:52:19;;;;;;;5.37;2.20;;;10.00;99.90;;;;;;5056563;28;20790;-64
2022/11/23 09:54:49;;;;;;;3.93;1.93;;;10.10;99.90;;;;;;5057718;28;20468;-62
2022/11/23 09:57:20;;;;;;;7.93;2.10;;;10.10;99.90;;;;;;5058145;28;20425;-62
2022/11/23 09:59:53;;;;;;;5.27;2.40;;;10.20;99.90;;;;;;5057297;28;20437;-62
2022/11/23 10:02:22;;;;;;;5.23;2.00;;;10.30;99.90;;;;;;5058052;28;20432;-62
2022/11/23 10:04:51;;;;;;;5.57;1.87;;;10.30;99.90;;;;;;5064537;28;20470;-62
2022/11/23 10:07:32;;;;;;;2.43;2.20;;;10.30;99.90;;;;;;5058810;28;20440;-60
2022/11/23 10:10:10;;;;;;;4.53;1.70;;;10.30;99.90;;;;;;5055656;28;20440;-61
2022/11/23 10:12:48;;;;;;;3.73;1.70;;;10.40;99.90;;;;;;5059000;28;20523;-61
2022/11/23 10:15:20;;;;;;;4.43;2.23;;;10.40;99.90;;;;;;5064056;28;20464;-61
2022/11/23 10:17:58;;;;;;;3.37;2.20;;;10.50;99.90;;;;;;5066195;28;20900;-61
2022/11/23 10:20:39;;;;;;;2.70;2.10;;;10.50;99.90;;;;;;5058630;28;20436;-59
2022/11/23 10:23:17;;;;;;;3.00;2.80;;;10.60;99.90;;;;;;5057893;28;20443;-60
2022/11/23 10:25:49;;;;;;;6.00;1.77;;;10.60;99.90;;;;;;5059092;28;20460;-61
2022/11/23 10:28:18;;;;;;;3.00;2.63;;;10.70;99.90;;;;;;5057003;28;20439;-62
2022/11/23 10:30:48;;;;;;;5.63;2.60;;;10.70;99.90;;;;;;5056524;28;20998;-61
2022/11/23 10:33:24;;;;;;;6.27;2.63;;;10.80;99.90;;;;;;5056119;28;20515;-61
2022/11/23 10:35:51;;;;;;;8.07;3.37;;;10.80;99.90;;;;;;5098371;22;20494;-60
2022/11/23 10:38:21;;;;;;;4.70;2.77;;;10.90;99.90;;;;;;5076243;28;20477;-59
2022/11/23 10:40:59;;;;;;;4.10;1.77;;;10.90;99.90;;;;;;5075976;28;20434;-60
2022/11/23 10:43:30;;;;;;;5.37;2.67;;;11.00;99.90;;;;;;5075293;28;20428;-60
2022/11/23 10:46:30;;;;;;;5.20;2.23;;;11.10;99.90;;;;;;5075213;28;20482;-61
2022/11/23 10:49:19;;;;;;;4.70;2.23;;;11.10;99.90;;;;;;5074852;28;20430;-60
2022/11/23 10:51:52;;;;;;;6.63;2.37;;;11.10;99.90;;;;;;5074579;28;20478;-60
2022/11/23 10:54:24;;;;;;;4.57;2.03;;;11.20;99.90;;;;;;5074333;28;20458;-58
2022/11/23 10:56:53;;;;;;;2.67;1.83;;;11.30;99.90;;;;;;5073920;28;20463;-59
2022/11/23 10:59:33;;;;;;;8.43;2.53;;;11.30;99.80;;;;;;5074674;28;20443;-59
2022/11/23 11:02:02;;;;;;;4.63;2.53;;;11.30;99.60;;;;;;5074763;28;20438;-60
2022/11/23 11:04:29;;;;;;;5.20;2.60;;;11.40;99.40;;;;;;5076348;28;20807;-60
2022/11/23 11:07:16;;;;;;;4.90;2.67;;;11.40;99.20;;;;;;5075588;28;20827;-60
2022/11/23 11:09:49;;;;;;;5.03;3.03;;;11.50;99.00;;;;;;5076181;28;20458;-58
2022/11/23 11:12:17;;;;;;;4.03;2.10;;;11.50;98.90;;;;;;5076130;28;20486;-60
2022/11/23 11:15:01;;;;;;;4.03;2.33;;;11.40;98.80;;;;;;5074921;28;20435;-59
2022/11/23 11:17:30;;;;;;;3.17;1.80;;;11.40;98.80;;;;;;5075222;28;20440;-61
2022/11/23 11:19:58;;;;;;;3.23;2.60;;;11.40;98.80;;;;;;5073134;28;20447;-61
2022/11/23 11:22:28;;;;;;;3.77;2.60;;;11.40;98.70;;;;;;5073976;28;20443;-62
2022/11/23 11:24:57;;;;;;;4.87;2.37;;;11.40;98.70;;;;;;5073479;28;20471;-61
2022/11/23 11:27:26;;;;;;;6.80;2.23;;;11.40;98.60;;;;;;5073917;28;20542;-61
2022/11/23 11:29:56;;;;;;;6.30;2.47;;;11.40;98.60;;;;;;5072983;28;20451;-61
2022/11/23 11:32:28;;;;;;;3.27;2.27;;;11.40;98.50;;;;;;5073208;28;20536;-61
2022/11/23 11:35:02;;;;;;;2.77;2.00;;;11.40;98.50;;;;;;5072744;28;20459;-61
2022/11/23 11:37:35;;;;;;;4.20;1.73;;;11.50;98.40;;;;;;5073152;28;20446;-60
2022/11/23 11:40:10;;;;;;;5.63;2.47;;;11.50;98.20;;;;;;5072989;28;20518;-62
2022/11/23 11:42:40;;;;;;;2.50;1.80;;;11.50;98.10;;;;;;5073153;28;20493;-62
2022/11/23 11:45:17;;;;;;;7.20;2.20;;;11.50;98.10;;;;;;5072438;28;20463;-61
2022/11/23 11:47:49;;;;;;;9.77;2.77;;;11.60;98.00;;;;;;5072951;28;20493;-61
2022/11/23 11:50:22;;;;;;;3.20;2.13;;;11.50;97.80;;;;;;5073327;28;20439;-61
2022/11/23 11:52:54;;;;;;;5.67;2.17;;;11.50;97.80;;;;;;5072975;28;20415;-61
2022/11/23 11:55:26;;;;;;;7.33;2.30;;;11.50;97.90;;;;;;5073398;28;20459;-61
2022/11/23 11:58:00;;;;;;;5.13;2.20;;;11.50;97.90;;;;;;5073638;28;20427;-60
2022/11/23 12:00:28;;;;;;;4.27;2.00;;;11.40;97.80;;;;;;5073378;28;20431;-61
2022/11/23 12:03:06;;;;;;;7.13;2.10;;;11.40;97.70;;;;;;5073145;28;20454;-59
2022/11/23 12:05:41;;;;;;;9.07;2.20;;;11.40;97.60;;;;;;5072759;28;20463;-61
2022/11/23 12:08:17;;;;;;;3.57;1.70;;;11.40;97.50;;;;;;5072883;28;20935;-61
2022/11/23 12:10:50;;;;;;;3.40;2.00;;;11.40;97.50;;;;;;5075339;28;20553;-61
2022/11/23 12:13:20;;;;;;;7.00;2.80;;;11.30;97.40;;;;;;5073291;28;20438;-60
2022/11/23 12:15:53;;;;;;;8.50;2.10;;;11.30;97.50;;;;;;5073244;28;20467;-62
2022/11/23 12:18:35;;;;;;;4.07;1.80;;;11.30;97.40;;;;;;5072612;28;20458;-60
2022/11/23 12:21:04;;;;;;;2.73;1.60;;;11.40;97.30;;;;;;5072431;28;20979;-61
2022/11/23 12:23:44;;;;;;;3.57;1.80;;;11.50;97.10;;;;;;5076692;28;20447;-74
2022/11/23 12:26:21;;;;;;;3.40;1.80;;;11.50;96.80;;;;;;5075324;28;20990;-61
2022/11/23 12:29:01;;;;;;;2.30;1.77;;;11.50;96.50;;;;;;5073213;28;20435;-60
2022/11/23 12:31:39;;;;;;;4.63;2.17;;;11.50;96.40;;;;;;5074662;28;20467;-60
2022/11/23 12:34:33;;;;;;;4.10;1.97;;;11.40;96.30;;;;;;5076509;28;21005;-61
2022/11/23 12:37:25;;;;;;;4.20;2.30;;;11.40;96.60;;;;;;5076609;28;20459;-60
2022/11/23 12:40:18;;;;;;;4.43;2.27;;;11.30;96.40;;;;;;5076890;28;20441;-61
2022/11/23 12:42:51;;;;;;;2.60;1.60;;;11.40;96.50;;;;;;5076449;28;20912;-59
2022/11/23 12:45:29;;;;;;;3.60;1.70;;;11.40;96.40;;;;;;5076253;28;20491;-62
2022/11/23 12:48:04;;;;;;;6.73;2.23;;;11.40;96.20;;;;;;5076350;28;20430;-61
2022/11/23 12:50:37;;;;;;;4.30;1.90;;;11.30;96.10;;;;;;5076533;28;20500;-60
2022/11/23 12:53:22;;;;;;;3.97;2.37;;;11.30;96.20;;;;;;5076904;28;20895;-63
2022/11/23 12:55:56;;;;;;;5.37;2.10;;;11.30;96.40;;;;;;5076405;28;20455;-60
2022/11/23 12:58:28;;;;;;;1.50;1.33;;;11.30;96.40;;;;;;5076344;28;20472;-62
2022/11/23 13:00:58;;;;;;;6.70;2.40;;;11.30;96.40;;;;;;5076425;28;20435;-62
2022/11/23 13:04:05;;;;;;;3.83;1.83;;;11.30;96.40;;;;;;5076439;28;20446;-62
2022/11/23 13:07:03;;;;;;;6.50;2.70;;;11.20;96.30;;;;;;5076111;28;20458;-62